createdAt,value
2019-04-26T00:01:24.340Z,100277.39
2019-04-26T00:03:54.824Z,100271.76
2019-04-26T00:06:24.716Z,100271.25
2019-04-26T00:08:58.860Z,100280.81
2019-04-26T00:11:34.080Z,100294.70
2019-04-26T00:14:03.410Z,100299.92
2019-04-26T00:16:34.557Z,100306.47
2019-04-26T00:19:04.209Z,100309.91
2019-04-26T00:21:34.000Z,100319.91
2019-04-26T00:24:03.836Z,100335.12
2019-04-26T00:26:33.632Z,100330.77
2019-04-26T00:29:03.186Z,100324.25
2019-04-26T00:31:32.690Z,100322.98
2019-04-26T00:34:02.177Z,100330.31
2019-04-26T00:36:31.685Z,100334.66
2019-04-26T00:39:01.184Z,100331.64
2019-04-26T00:41:31.137Z,100327.31
2019-04-26T00:44:01.042Z,100324.71
2019-04-26T00:46:31.979Z,100325.55
2019-04-26T00:49:04.294Z,100332.48
2019-04-26T00:51:34.917Z,100331.61
2019-04-26T00:54:05.058Z,100333.36
2019-04-26T00:56:35.777Z,100340.75
2019-04-26T00:59:07.833Z,100350.29
2019-04-26T01:01:39.227Z,100348.96
2019-04-26T01:04:08.810Z,100345.51
2019-04-26T01:06:40.111Z,100353.38
2019-04-26T01:09:09.639Z,100355.08
2019-04-26T01:11:39.161Z,100365.50
2019-04-26T01:14:08.738Z,100379.83
2019-04-26T01:16:38.245Z,100386.76
2019-04-26T01:19:11.362Z,100404.56
2019-04-26T01:21:45.528Z,100400.23
2019-04-26T01:24:18.250Z,100387.23
2019-04-26T01:26:50.210Z,100379.37
2019-04-26T01:29:21.806Z,100373.70
2019-04-26T01:32:12.659Z,100388.90
2019-04-26T01:34:44.170Z,100390.62
2019-04-26T01:37:14.029Z,100391.99
2019-04-26T01:39:49.983Z,100400.25
2019-04-26T01:42:33.169Z,100396.77
2019-04-26T01:45:04.900Z,100390.67
2019-04-26T01:47:34.952Z,100381.59
2019-04-26T01:50:06.761Z,100380.70
2019-04-26T01:52:36.321Z,100406.73
2019-04-26T01:55:08.231Z,100414.48
2019-04-26T01:57:38.966Z,100417.16
2019-04-26T02:00:11.844Z,100424.03
2019-04-26T02:02:54.964Z,100420.98
2019-04-26T02:05:28.011Z,100407.61
2019-04-26T02:07:57.844Z,100369.78
2019-04-26T02:10:29.335Z,100352.41
2019-04-26T02:12:59.849Z,100365.86
2019-04-26T02:15:33.526Z,100382.31
2019-04-26T02:18:04.275Z,100383.09
2019-04-26T02:21:04.651Z,100392.59
2019-04-26T02:23:41.670Z,100406.34
2019-04-26T02:26:28.962Z,100402.12
2019-04-26T02:28:58.559Z,100416.27
2019-04-26T02:31:29.274Z,100416.59
2019-04-26T02:34:01.623Z,100423.53
2019-04-26T02:36:53.025Z,100426.57
2019-04-26T02:39:16.560Z,100427.46
2019-04-26T02:41:48.016Z,100419.60
2019-04-26T02:44:22.101Z,100422.64
2019-04-26T02:47:03.934Z,100433.98
2019-04-26T02:49:43.940Z,100431.33
2019-04-26T02:52:34.051Z,100436.94
2019-04-26T02:55:11.818Z,100438.18
2019-04-26T02:57:49.106Z,100433.03
2019-04-26T03:00:20.802Z,100430.48
2019-04-26T03:02:56.464Z,100427.35
2019-04-26T03:05:28.497Z,100434.31
2019-04-26T03:08:03.962Z,100439.48
2019-04-26T03:10:40.080Z,100439.16
2019-04-26T03:13:14.351Z,100445.20
2019-04-26T03:15:51.290Z,100432.23
2019-04-26T03:18:27.729Z,100424.83
2019-04-26T03:21:07.636Z,100407.45
2019-04-26T03:23:57.685Z,100406.95
2019-04-26T03:26:43.263Z,100418.57
2019-04-26T03:30:17.429Z,100422.41
2019-04-26T03:32:54.170Z,100426.39
2019-04-26T03:35:48.564Z,100441.06
2019-04-26T03:38:43.592Z,100456.58
2019-04-26T03:41:44.434Z,100445.36
2019-04-26T03:44:44.060Z,100446.22
2019-04-26T03:47:18.533Z,100448.65
2019-04-26T03:49:58.242Z,100448.22
2019-04-26T03:52:58.094Z,100444.86
2019-04-26T03:55:40.294Z,100442.79
2019-04-26T03:58:56.741Z,100445.79
2019-04-26T04:01:30.033Z,100447.81
2019-04-26T04:04:18.770Z,100450.85
2019-04-26T04:07:03.439Z,100450.85
2019-04-26T04:09:23.482Z,100452.62
2019-04-26T04:12:17.825Z,100454.28
2019-04-26T04:15:00.598Z,100454.71
2019-04-26T04:17:43.808Z,100455.11
2019-04-26T04:20:30.012Z,100451.68
2019-04-26T04:23:16.278Z,100449.95
2019-04-26T04:25:51.808Z,100451.28
2019-04-26T04:28:53.704Z,100458.61
2019-04-26T04:31:44.193Z,100465.06
2019-04-26T04:34:27.320Z,100460.77
2019-04-26T04:37:01.508Z,100459.11
2019-04-26T04:40:04.975Z,100463.80
2019-04-26T04:42:46.012Z,100465.53
2019-04-26T04:45:40.460Z,100466.83
2019-04-26T04:48:37.370Z,100475.48
2019-04-26T04:51:46.897Z,100467.27
2019-04-26T04:54:39.613Z,100459.47
2019-04-26T04:57:37.550Z,100456.88
2019-04-26T05:00:18.823Z,100462.03
2019-04-26T05:03:15.291Z,100466.41
2019-04-26T05:06:11.436Z,100483.75
2019-04-26T05:08:50.194Z,100487.62
2019-04-26T05:11:29.657Z,100494.07
2019-04-26T05:14:12.559Z,100494.47
2019-04-26T05:17:18.365Z,100492.77
2019-04-26T05:19:57.504Z,100498.88
2019-04-26T05:22:49.027Z,100509.38
2019-04-26T05:25:58.255Z,100517.69
2019-04-26T05:29:19.134Z,100508.66
2019-04-26T05:32:09.587Z,100526.85
2019-04-26T05:35:10.696Z,100517.83
2019-04-26T05:37:59.504Z,100510.56
2019-04-26T05:40:51.445Z,100513.62
2019-04-26T05:43:49.126Z,100517.53
2019-04-26T05:47:05.844Z,100518.83
2019-04-26T05:50:00.922Z,100505.95
2019-04-26T05:53:10.681Z,100515.60
2019-04-26T05:56:11.378Z,100508.80
2019-04-26T05:58:45.628Z,100511.92
2019-04-26T06:01:53.315Z,100517.58
2019-04-26T06:04:46.665Z,100533.31
2019-04-26T06:07:38.756Z,100529.50
2019-04-26T06:10:35.417Z,100529.97
2019-04-26T06:13:10.799Z,100526.98
2019-04-26T06:16:05.265Z,100530.09
2019-04-26T06:18:53.114Z,100533.39
2019-04-26T06:21:41.825Z,100535.44
2019-04-26T06:24:33.811Z,100531.99
2019-04-26T06:27:17.929Z,100538.50
2019-04-26T06:30:18.464Z,100545.58
2019-04-26T06:33:06.183Z,100562.41
2019-04-26T06:35:40.090Z,100584.14
2019-04-26T06:38:43.768Z,100598.71
2019-04-26T06:41:40.450Z,100606.92
2019-04-26T06:44:22.247Z,100598.62
2019-04-26T06:46:59.823Z,100609.55
2019-04-26T06:50:16.006Z,100608.62
2019-04-26T06:53:44.478Z,100600.39
2019-04-26T06:56:57.118Z,100602.47
2019-04-26T06:59:36.538Z,100600.96
2019-04-26T07:02:51.368Z,100594.41
2019-04-26T07:05:34.117Z,100598.25
2019-04-26T07:08:24.584Z,100602.62
2019-04-26T07:11:34.423Z,100603.77
2019-04-26T07:14:36.670Z,100600.97
2019-04-26T07:17:16.702Z,100597.44
2019-04-26T07:20:17.489Z,100604.30
2019-04-26T07:23:09.341Z,100599.09
2019-04-26T07:26:06.171Z,100602.61
2019-04-26T07:29:13.419Z,100607.36
2019-04-26T07:32:07.382Z,100616.00
2019-04-26T07:35:00.968Z,100630.41
2019-04-26T07:37:55.714Z,100640.37
2019-04-26T07:41:13.402Z,100636.97
2019-04-26T07:44:18.715Z,100637.73
2019-04-26T07:47:17.532Z,100646.70
2019-04-26T07:50:14.779Z,100650.66
2019-04-26T07:52:54.866Z,100646.66
2019-04-26T07:55:37.892Z,100654.61
2019-04-26T07:58:44.999Z,100649.03
2019-04-26T08:01:35.271Z,100639.00
2019-04-26T08:04:14.681Z,100641.63
2019-04-26T08:06:50.510Z,100639.94
2019-04-26T08:09:27.263Z,100648.58
2019-04-26T08:11:59.914Z,100657.28
2019-04-26T08:14:47.298Z,100654.30
2019-04-26T08:17:32.670Z,100672.57
2019-04-26T08:20:32.030Z,100674.75
2019-04-26T08:23:09.035Z,100673.86
2019-04-26T08:25:38.646Z,100685.17
2019-04-26T08:28:12.054Z,100686.02
2019-04-26T08:30:46.347Z,100672.98
2019-04-26T08:33:21.402Z,100676.92
2019-04-26T08:35:53.651Z,100687.80
2019-04-26T08:38:24.679Z,100692.16
2019-04-26T08:40:55.173Z,100706.47
2019-04-26T08:43:30.575Z,100704.32
2019-04-26T08:46:10.112Z,100688.55
2019-04-26T08:48:44.455Z,100689.52
2019-04-26T08:51:20.703Z,100700.42
2019-04-26T08:53:52.094Z,100696.08
2019-04-26T08:56:37.817Z,100698.25
2019-04-26T08:59:15.079Z,100695.21
2019-04-26T09:01:49.109Z,100690.84
2019-04-26T09:04:41.534Z,100694.73
2019-04-26T09:07:16.128Z,100705.20
2019-04-26T09:09:57.059Z,100702.18
2019-04-26T09:12:23.267Z,100705.64
2019-04-26T09:14:55.669Z,100712.64
2019-04-26T09:17:27.812Z,100716.53
2019-04-26T09:19:58.060Z,100713.03
2019-04-26T09:22:45.765Z,100706.95
2019-04-26T09:25:16.980Z,100708.70
2019-04-26T09:27:50.848Z,100716.95
2019-04-26T09:30:33.338Z,100714.70
2019-04-26T09:32:58.295Z,100712.63
2019-04-26T09:35:26.312Z,100714.77
2019-04-26T09:37:55.905Z,100709.48
2019-04-26T09:40:25.502Z,100725.06
2019-04-26T09:43:02.632Z,100733.88
2019-04-26T09:45:49.496Z,100738.11
2019-04-26T09:48:20.686Z,100727.81
2019-04-26T09:50:51.911Z,100736.50
2019-04-26T09:53:21.392Z,100739.38
2019-04-26T09:55:50.890Z,100746.25
2019-04-26T09:58:20.399Z,100751.94
2019-04-26T10:00:50.247Z,100753.69
2019-04-26T10:03:19.900Z,100753.91
2019-04-26T10:05:52.157Z,100746.03
2019-04-26T10:08:20.690Z,100740.66
2019-04-26T10:10:51.670Z,100742.83
2019-04-26T10:13:38.866Z,100748.45
2019-04-26T10:16:10.066Z,100747.62
2019-04-26T10:18:41.483Z,100747.52
2019-04-26T10:21:11.065Z,100744.98
2019-04-26T10:23:40.550Z,100749.45
2019-04-26T10:26:10.031Z,100755.81
2019-04-26T10:28:39.674Z,100754.08
2019-04-26T10:31:09.246Z,100755.84
2019-04-26T10:33:39.170Z,100752.77
2019-04-26T10:36:08.723Z,100755.56
2019-04-26T10:38:38.309Z,100749.22
2019-04-26T10:41:08.129Z,100755.53
2019-04-26T10:43:37.658Z,100747.05
2019-04-26T10:46:07.718Z,100745.83
2019-04-26T10:48:37.199Z,100740.00
2019-04-26T10:51:07.681Z,100736.77
2019-04-26T10:53:42.124Z,100736.25
2019-04-26T10:56:20.201Z,100737.68
2019-04-26T10:58:51.779Z,100738.64
2019-04-26T11:01:22.042Z,100739.78
2019-04-26T11:03:51.676Z,100748.70
2019-04-26T11:06:24.122Z,100749.86
2019-04-26T11:08:52.665Z,100753.32
2019-04-26T11:11:22.312Z,100741.13
2019-04-26T11:13:51.805Z,100738.19
2019-04-26T11:16:21.466Z,100734.18
2019-04-26T11:18:51.129Z,100733.14
2019-04-26T11:21:22.343Z,100718.72
2019-04-26T11:23:51.977Z,100716.05
2019-04-26T11:26:21.493Z,100727.09
2019-04-26T11:28:55.192Z,100726.30
2019-04-26T11:31:23.456Z,100719.20
2019-04-26T11:34:04.683Z,100716.77
2019-04-26T11:36:24.865Z,100736.81
2019-04-26T11:38:54.438Z,100742.42
2019-04-26T11:41:23.940Z,100743.77
2019-04-26T11:43:54.569Z,100742.16
2019-04-26T11:46:29.149Z,100734.75
2019-04-26T11:48:59.308Z,100740.36
2019-04-26T11:51:27.577Z,100735.27
2019-04-26T11:53:58.043Z,100739.75
2019-04-26T11:56:27.681Z,100740.09
2019-04-26T11:58:58.362Z,100738.70
2019-04-26T12:01:29.822Z,100733.45
2019-04-26T12:04:07.353Z,100724.86
2019-04-26T12:06:40.970Z,100725.43
2019-04-26T12:09:20.960Z,100724.92
2019-04-26T12:12:03.672Z,100733.08
2019-04-26T12:14:21.694Z,100730.30
2019-04-26T12:16:55.070Z,100732.09
2019-04-26T12:19:22.417Z,100731.47
2019-04-26T12:21:51.961Z,100726.20
2019-04-26T12:24:21.432Z,100727.95
2019-04-26T12:26:51.986Z,100727.20
2019-04-26T12:29:21.592Z,100722.45
2019-04-26T12:31:51.162Z,100719.72
2019-04-26T12:34:20.662Z,100713.88
2019-04-26T12:36:50.149Z,100716.97
2019-04-26T12:39:20.204Z,100717.02
2019-04-26T12:41:49.792Z,100729.59
2019-04-26T12:44:19.462Z,100729.73
2019-04-26T12:46:59.287Z,100722.36
2019-04-26T12:49:27.787Z,100722.63
2019-04-26T12:51:57.369Z,100724.94
2019-04-26T12:54:26.952Z,100727.27
2019-04-26T12:56:56.429Z,100729.70
2019-04-26T12:59:26.618Z,100730.68
2019-04-26T13:02:05.564Z,100728.83
2019-04-26T13:04:35.894Z,100735.30
2019-04-26T13:07:02.418Z,100728.23
2019-04-26T13:09:33.746Z,100729.22
2019-04-26T13:12:02.990Z,100733.70
2019-04-26T13:14:32.236Z,100736.77
2019-04-26T13:17:05.820Z,100738.23
2019-04-26T13:19:35.390Z,100733.88
2019-04-26T13:22:08.579Z,100729.88
2019-04-26T13:24:39.862Z,100736.11
2019-04-26T13:27:10.593Z,100728.11
2019-04-26T13:29:38.604Z,100734.69
2019-04-26T13:32:08.173Z,100739.82
2019-04-26T13:34:38.344Z,100733.19
2019-04-26T13:37:07.894Z,100741.87
2019-04-26T13:39:37.582Z,100740.28
2019-04-26T13:42:09.579Z,100734.56
2019-04-26T13:44:55.278Z,100729.05
2019-04-26T13:47:42.460Z,100733.67
2019-04-26T13:50:13.823Z,100729.31
2019-04-26T13:52:43.403Z,100725.67
2019-04-26T13:55:13.095Z,100730.20
2019-04-26T13:57:44.511Z,100728.45
2019-04-26T14:00:15.680Z,100735.07
2019-04-26T14:02:45.353Z,100734.83
2019-04-26T14:05:16.711Z,100738.00
2019-04-26T14:07:46.247Z,100733.34
2019-04-26T14:10:15.977Z,100731.25
2019-04-26T14:12:46.213Z,100738.85
2019-04-26T14:15:16.770Z,100744.69
2019-04-26T14:17:46.352Z,100737.86
2019-04-26T14:20:19.236Z,100736.80
2019-04-26T14:22:51.585Z,100741.61
2019-04-26T14:25:22.723Z,100738.24
2019-04-26T14:27:53.593Z,100735.37
2019-04-26T14:30:23.233Z,100734.58
2019-04-26T14:32:53.104Z,100731.74
2019-04-26T14:35:24.034Z,100735.13
2019-04-26T14:37:53.530Z,100735.62
2019-04-26T14:40:23.281Z,100744.26
2019-04-26T14:43:05.917Z,100731.86
2019-04-26T14:45:24.286Z,100730.86
2019-04-26T14:47:53.878Z,100723.38
2019-04-26T14:50:23.446Z,100720.95
2019-04-26T14:52:52.951Z,100727.69
2019-04-26T14:55:22.896Z,100721.70
2019-04-26T14:57:53.985Z,100717.59
2019-04-26T15:00:31.348Z,100719.34
2019-04-26T15:03:12.296Z,100713.12
2019-04-26T15:05:46.555Z,100716.63
2019-04-26T15:08:16.218Z,100716.98
2019-04-26T15:10:48.790Z,100715.28
2019-04-26T15:13:20.794Z,100715.75
2019-04-26T15:15:48.832Z,100711.20
2019-04-26T15:18:18.333Z,100709.32
2019-04-26T15:20:47.876Z,100712.92
2019-04-26T15:23:19.492Z,100711.86
2019-04-26T15:25:49.881Z,100707.28
2019-04-26T15:28:19.464Z,100708.89
2019-04-26T15:30:48.997Z,100701.27
2019-04-26T15:33:18.522Z,100694.65
2019-04-26T15:35:48.995Z,100699.53
2019-04-26T15:38:18.781Z,100699.97
2019-04-26T15:40:56.629Z,100702.97
2019-04-26T15:43:27.772Z,100696.11
2019-04-26T15:45:57.015Z,100694.63
2019-04-26T15:48:26.307Z,100693.59
2019-04-26T15:50:57.357Z,100692.51
2019-04-26T15:53:26.980Z,100694.50
2019-04-26T15:55:56.486Z,100699.69
2019-04-26T15:58:25.998Z,100697.89
2019-04-26T16:00:55.616Z,100703.20
2019-04-26T16:03:25.124Z,100704.38
2019-04-26T16:05:54.707Z,100706.17
2019-04-26T16:08:24.253Z,100703.11
2019-04-26T16:10:53.753Z,100701.64
2019-04-26T16:13:24.089Z,100701.09
2019-04-26T16:15:53.717Z,100704.98
2019-04-26T16:18:23.392Z,100713.89
2019-04-26T16:20:53.442Z,100706.00
2019-04-26T16:23:24.318Z,100699.73
2019-04-26T16:25:54.092Z,100695.69
2019-04-26T16:28:44.349Z,100699.68
2019-04-26T16:31:13.790Z,100705.38
2019-04-26T16:33:52.036Z,100700.40
2019-04-26T16:36:21.905Z,100703.02
2019-04-26T16:38:54.789Z,100704.34
2019-04-26T16:41:27.226Z,100700.00
2019-04-26T16:43:55.312Z,100704.42
2019-04-26T16:46:25.008Z,100705.57
2019-04-26T16:49:01.580Z,100707.45
2019-04-26T16:51:25.803Z,100717.73
2019-04-26T16:54:06.931Z,100716.03
2019-04-26T16:56:28.310Z,100725.02
2019-04-26T16:58:57.894Z,100718.36
2019-04-26T17:01:27.374Z,100725.86
2019-04-26T17:03:56.881Z,100723.30
2019-04-26T17:06:26.465Z,100734.22
2019-04-26T17:09:01.198Z,100729.83
2019-04-26T17:11:30.250Z,100733.44
2019-04-26T17:14:04.099Z,100737.67
2019-04-26T17:16:33.953Z,100741.13
2019-04-26T17:19:01.080Z,100743.08
2019-04-26T17:21:32.776Z,100745.78
2019-04-26T17:24:16.602Z,100749.37
2019-04-26T17:26:47.770Z,100748.71
2019-04-26T17:29:17.306Z,100745.97
2019-04-26T17:31:46.818Z,100745.44
2019-04-26T17:34:16.435Z,100748.00
2019-04-26T17:36:46.329Z,100750.60
2019-04-26T17:39:18.408Z,100745.44
2019-04-26T17:41:50.685Z,100750.91
2019-04-26T17:44:20.702Z,100743.09
2019-04-26T17:46:56.154Z,100745.33
2019-04-26T17:49:27.164Z,100751.52
2019-04-26T17:51:57.927Z,100744.91
2019-04-26T17:54:41.543Z,100749.70
2019-04-26T17:56:55.815Z,100749.97
2019-04-26T17:59:33.486Z,100741.63
2019-04-26T18:02:00.715Z,100747.80
2019-04-26T18:04:34.389Z,100748.91
2019-04-26T18:07:03.747Z,100742.27
2019-04-26T18:09:42.944Z,100745.30
2019-04-26T18:12:03.550Z,100746.09
2019-04-26T18:14:33.208Z,100738.43
2019-04-26T18:17:16.525Z,100739.48
2019-04-26T18:19:48.725Z,100741.32
2019-04-26T18:22:20.845Z,100745.84
2019-04-26T18:24:50.353Z,100749.84
2019-04-26T18:27:19.860Z,100756.80
2019-04-26T18:29:49.551Z,100763.41
2019-04-26T18:32:19.298Z,100763.42
2019-04-26T18:34:48.849Z,100768.28
2019-04-26T18:37:18.352Z,100767.02
2019-04-26T18:39:48.005Z,100772.25
2019-04-26T18:42:17.645Z,100767.94
2019-04-26T18:44:48.779Z,100771.41
2019-04-26T18:47:27.543Z,100770.56
2019-04-26T18:49:58.145Z,100774.91
2019-04-26T18:52:26.422Z,100772.70
2019-04-26T18:54:57.602Z,100775.77
2019-04-26T18:57:27.244Z,100780.96
2019-04-26T18:59:56.753Z,100780.90
2019-04-26T19:02:28.152Z,100791.73
2019-04-26T19:04:57.688Z,100793.84
2019-04-26T19:07:32.339Z,100801.61
2019-04-26T19:10:02.472Z,100801.04
2019-04-26T19:12:30.097Z,100803.51
2019-04-26T19:15:07.336Z,100802.98
2019-04-26T19:17:37.124Z,100810.66
2019-04-26T19:20:25.793Z,100811.83
2019-04-26T19:22:59.560Z,100812.17
2019-04-26T19:25:30.014Z,100812.06
2019-04-26T19:28:04.347Z,100812.89
2019-04-26T19:30:32.640Z,100814.92
2019-04-26T19:33:02.262Z,100820.13
2019-04-26T19:35:32.869Z,100820.52
2019-04-26T19:38:03.277Z,100817.84
2019-04-26T19:40:33.032Z,100817.41
2019-04-26T19:43:07.563Z,100821.22
2019-04-26T19:45:45.916Z,100807.27
2019-04-26T19:48:20.710Z,100815.78
2019-04-26T19:50:52.700Z,100815.25
2019-04-26T19:53:29.709Z,100819.88
2019-04-26T19:56:01.744Z,100816.75
2019-04-26T19:58:32.940Z,100815.95
2019-04-26T20:01:04.369Z,100810.34
2019-04-26T20:03:34.065Z,100823.21
2019-04-26T20:06:04.985Z,100824.08
2019-04-26T20:08:41.650Z,100827.92
2019-04-26T20:11:06.094Z,100831.78
2019-04-26T20:13:35.613Z,100834.00
2019-04-26T20:16:06.385Z,100829.67
2019-04-26T20:18:38.830Z,100831.02
2019-04-26T20:21:12.678Z,100829.42
2019-04-26T20:23:45.864Z,100830.04
2019-04-26T20:26:09.893Z,100828.83
2019-04-26T20:28:39.547Z,100821.93
2019-04-26T20:31:12.275Z,100818.62
2019-04-26T20:33:42.419Z,100821.31
2019-04-26T20:36:12.123Z,100822.61
2019-04-26T20:38:46.169Z,100825.65
2019-04-26T20:41:14.815Z,100819.38
2019-04-26T20:43:48.649Z,100823.56
2019-04-26T20:46:15.854Z,100831.59
2019-04-26T20:48:45.654Z,100828.39
2019-04-26T20:51:18.068Z,100832.21
2019-04-26T20:53:46.559Z,100826.83
2019-04-26T20:56:18.487Z,100828.69
2019-04-26T20:58:47.428Z,100825.53
2019-04-26T21:01:17.426Z,100836.41
2019-04-26T21:03:47.174Z,100834.76
2019-04-26T21:06:16.723Z,100835.47
2019-04-26T21:08:46.271Z,100830.36
2019-04-26T21:11:15.946Z,100840.59
2019-04-26T21:13:45.580Z,100828.48
2019-04-26T21:16:15.698Z,100825.02
2019-04-26T21:18:45.288Z,100818.11
2019-04-26T21:21:16.222Z,100823.16
2019-04-26T21:23:47.812Z,100817.91
2019-04-26T21:26:21.774Z,100819.53
2019-04-26T21:28:54.289Z,100807.78
2019-04-26T21:31:23.744Z,100811.48
2019-04-26T21:34:00.962Z,100817.28
2019-04-26T21:36:48.026Z,100826.08
2019-04-26T21:39:27.748Z,100837.23
2019-04-26T21:41:58.922Z,100832.03
2019-04-26T21:44:28.431Z,100830.20
2019-04-26T21:46:58.962Z,100834.08
2019-04-26T21:49:28.535Z,100833.33
2019-04-26T21:51:58.065Z,100834.63
2019-04-26T21:54:27.586Z,100838.58
2019-04-26T21:56:57.087Z,100835.45
2019-04-26T21:59:26.604Z,100839.63
2019-04-26T22:01:59.227Z,100840.87
2019-04-26T22:04:32.966Z,100830.09
2019-04-26T22:06:59.958Z,100828.91
2019-04-26T22:09:43.049Z,100826.62
2019-04-26T22:12:14.198Z,100840.36
2019-04-26T22:14:46.419Z,100835.83
2019-04-26T22:17:17.737Z,100830.22
2019-04-26T22:19:48.956Z,100831.88
2019-04-26T22:22:20.246Z,100831.52
2019-04-26T22:24:55.503Z,100828.44
2019-04-26T22:27:25.510Z,100824.42
2019-04-26T22:29:55.197Z,100823.83
2019-04-26T22:32:24.776Z,100824.18
2019-04-26T22:34:54.348Z,100818.38
2019-04-26T22:37:30.050Z,100821.33
2019-04-26T22:39:55.121Z,100824.74
2019-04-26T22:42:24.874Z,100818.28
2019-04-26T22:44:56.006Z,100821.85
2019-04-26T22:47:33.951Z,100822.32
2019-04-26T22:50:06.139Z,100821.97
2019-04-26T22:52:35.718Z,100820.12
2019-04-26T22:55:07.538Z,100824.02
2019-04-26T22:57:37.062Z,100831.44
2019-04-26T23:00:08.575Z,100823.54
2019-04-26T23:02:38.304Z,100820.93
2019-04-26T23:05:07.952Z,100817.08
2019-04-26T23:07:37.459Z,100822.23
2019-04-26T23:10:09.159Z,100822.67
2019-04-26T23:12:58.006Z,100827.61
2019-04-26T23:15:38.106Z,100832.67
2019-04-26T23:18:08.224Z,100819.61
2019-04-26T23:20:48.828Z,100826.64
2019-04-26T23:23:18.331Z,100824.94
2019-04-26T23:25:47.845Z,100823.13
2019-04-26T23:28:17.491Z,100820.44
2019-04-26T23:30:47.480Z,100822.80
2019-04-26T23:33:17.034Z,100823.56
2019-04-26T23:35:47.680Z,100823.95
2019-04-26T23:38:17.479Z,100824.81
2019-04-26T23:40:47.034Z,100824.14
2019-04-26T23:43:16.526Z,100815.69
2019-04-26T23:45:48.373Z,100820.66
2019-04-26T23:48:17.254Z,100821.38
2019-04-26T23:50:46.740Z,100821.34
2019-04-26T23:53:20.140Z,100816.84
2019-04-26T23:55:47.488Z,100820.30
2019-04-26T23:58:17.088Z,100818.53
